Almeria, Nebraska
Current Conditions -  °F | °C
As of 3:53 AM on Friday 24 Oct 2014 (Local Time) from KODX Reporting Station
Clear Clear  
Wind Chill: 54°   Ceiling: Unl
Heat Index: 54°   Visibility: 8mi
Dew Point: 51°   Wind: 6mph
Humidity: 90%   Direction: 210°SSW
Pressure: 29.92"   Gusts: NA
Location:  41.914°N, 99.4547°W
Report Text: KODX 240853Z AUTO 21005KT 8SM CLR 12/11 A2992 RMK AO2 SLP129 T01220106 56005 $
Loading
Personal Weather Stations






























Interactive Weather Map New forecast layout! Learn more

10-Day Weather Forecast

Advertisements
Track Severe Weather on mobile